Marshallberg, North Carolina
Current Conditions -  °F | °C
As of 8:58 AM on Sunday 23 Nov 2014 (Local Time) from KMRH Reporting Station
Light Rain Light Rain  
Wind Chill: 62°   Ceiling: 12000
Heat Index: 62°   Visibility: 10mi
Dew Point: 55°   Wind: 7mph
Humidity: 78%   Direction: 130°SE
Pressure: 30.25"   Gusts: NA
Location:  34.73°N, 76.52°W
Report Text: KMRH 231358Z AUTO 13006KT 10SM -RA BKN120 17/13 A3025 RMK AO2 RAB07 SLP243 P0000 T01670128 TSNO
Loading
Personal Weather Stations






























Interactive Weather Map New forecast layout! Learn more

10-Day Weather Forecast

Advertisements
Track Severe Weather on mobile